Karlsborg, Sweden
Current Conditions -  °F | °C
As of 9:20 AM on Tuesday 27 Jan 2015 (Local Time) from ESGR Reporting Station
Overcast Overcast  
Wind Chill: 26°   Ceiling: 500
Heat Index: 34°   Visibility: 6mi
Dew Point: 32°   Wind: 10mph
Humidity: 93%   Direction: 340°NNW
Pressure: 29.77"   Gusts: NA
Location:  58.54°N, 14.5°E
Report Text: ESGR 270820Z AUTO 34009KT 9999 OVC005/// 01/00 Q1008
Loading
Personal Weather Stations






























Interactive Weather Map New forecast layout! Learn more

10-Day Weather Forecast

Advertisements
Track Severe Weather on mobile